Time;durP1;ratioP1;P1;durP2;ratioP2;P2;SDS_P1;SDS_P2;PMS_P1;PMS_P2;Temp;Humidity;BMP_temperature;BMP_pressure;BME280_temperature;BME280_humidity;BME280_pressure;Samples;Min_cycle;Max_cycle;Signal;HPM_P1;HPM_P2
2021/07/30 00:01:20;;;;;;;15.98;11.07;;;;;;;;;;4957351;28;20106;-77
2021/07/30 00:03:48;;;;;;;18.92;12.38;;;;;;;;;;4955990;28;20059;-79
2021/07/30 00:06:15;;;;;;;16.88;11.65;;;;;;;;;;4955509;28;20106;-79
2021/07/30 00:08:41;;;;;;;14.38;11.00;;;;;;;;;;4956149;28;20102;-80
2021/07/30 00:11:08;;;;;;;16.02;11.55;;;;;;;;;;4956255;28;20051;-80
2021/07/30 00:13:35;;;;;;;17.80;10.98;;;;;;;;;;4955736;28;20055;-80
2021/07/30 00:16:02;;;;;;;16.25;11.88;;;;;;;;;;4955399;28;20055;-79
2021/07/30 00:18:29;;;;;;;16.98;11.10;;;;;;;;;;4956294;28;20047;-79
2021/07/30 00:20:57;;;;;;;15.32;10.73;;;;;;;;;;4955170;28;20047;-80
2021/07/30 00:23:24;;;;;;;15.88;11.55;;;;;;;;;;4956312;28;20051;-81
2021/07/30 00:25:51;;;;;;;15.88;11.15;;;;;;;;;;4955011;28;20428;-78
2021/07/30 00:28:18;;;;;;;16.38;11.88;;;;;;;;;;4953533;28;20114;-79
2021/07/30 00:30:47;;;;;;;20.33;15.15;;;;;;;;;;4953736;29;20055;-78
2021/07/30 00:33:13;;;;;;;21.60;15.23;;;;;;;;;;4954113;28;20047;-79
2021/07/30 00:35:40;;;;;;;24.10;15.90;;;;;;;;;;4952639;28;20458;-79
2021/07/30 00:38:08;;;;;;;22.98;16.67;;;;;;;;;;4953866;28;20106;-78
2021/07/30 00:40:35;;;;;;;23.98;16.08;;;;;;;;;;4953381;28;20047;-79
2021/07/30 00:43:05;;;;;;;21.02;15.30;;;;;;;;;;4953917;28;20130;-78
2021/07/30 00:45:32;;;;;;;22.17;17.08;;;;;;;;;;4953033;28;20054;-78
2021/07/30 00:48:00;;;;;;;22.17;15.82;;;;;;;;;;4960501;28;20536;-79
2021/07/30 00:50:27;;;;;;;20.08;14.57;;;;;;;;;;4959459;28;20489;-79
2021/07/30 00:52:55;;;;;;;19.73;14.63;;;;;;;;;;4957230;28;20103;-79
2021/07/30 00:55:24;;;;;;;18.98;12.38;;;;;;;;;;4957000;28;20110;-79
2021/07/30 00:57:52;;;;;;;15.85;12.00;;;;;;;;;;4957260;28;20047;-79
2021/07/30 01:00:19;;;;;;;16.40;11.40;;;;;;;;;;4957094;28;20397;-79
2021/07/30 01:02:46;;;;;;;15.60;11.13;;;;;;;;;;4957099;28;20050;-79
2021/07/30 01:05:14;;;;;;;17.08;10.82;;;;;;;;;;4956271;28;20058;-80
2021/07/30 01:07:41;;;;;;;14.60;10.10;;;;;;;;;;4956838;28;20086;-79
2021/07/30 01:10:08;;;;;;;13.38;10.15;;;;;;;;;;4957431;28;20051;-79
2021/07/30 01:12:36;;;;;;;14.05;10.52;;;;;;;;;;4956829;29;20047;-78
2021/07/30 01:15:04;;;;;;;14.90;9.25;;;;;;;;;;4956415;28;20138;-79
2021/07/30 01:17:30;;;;;;;12.90;9.38;;;;;;;;;;4956803;29;20063;-79
2021/07/30 01:19:57;;;;;;;16.77;9.70;;;;;;;;;;4956633;28;20051;-79
2021/07/30 01:22:27;;;;;;;15.32;10.43;;;;;;;;;;4956354;28;20122;-79
2021/07/30 01:24:55;;;;;;;14.98;9.48;;;;;;;;;;4956343;28;20063;-79
2021/07/30 01:27:22;;;;;;;15.13;10.25;;;;;;;;;;4956604;29;20054;-80
2021/07/30 01:29:51;;;;;;;13.80;9.30;;;;;;;;;;4956570;28;20048;-79
2021/07/30 01:32:19;;;;;;;15.02;10.05;;;;;;;;;;4956408;28;20058;-79
2021/07/30 01:34:46;;;;;;;13.02;8.73;;;;;;;;;;4957521;28;20477;-79
2021/07/30 01:37:13;;;;;;;14.15;8.98;;;;;;;;;;4960043;28;20136;-79
2021/07/30 01:39:40;;;;;;;14.90;9.25;;;;;;;;;;4960617;29;20055;-78
2021/07/30 01:42:08;;;;;;;13.98;9.77;;;;;;;;;;4960008;28;20103;-78
2021/07/30 01:44:35;;;;;;;14.15;10.00;;;;;;;;;;4960016;29;20047;-79
2021/07/30 01:47:02;;;;;;;12.27;9.35;;;;;;;;;;4956155;28;20051;-79
2021/07/30 01:49:28;;;;;;;15.02;9.73;;;;;;;;;;4956185;29;20063;-79
2021/07/30 01:51:55;;;;;;;14.55;10.07;;;;;;;;;;4956378;28;20078;-79
2021/07/30 01:54:22;;;;;;;14.23;9.45;;;;;;;;;;4956081;28;20055;-79
2021/07/30 01:56:49;;;;;;;14.80;9.52;;;;;;;;;;4955453;28;20098;-79
2021/07/30 01:59:17;;;;;;;12.93;9.20;;;;;;;;;;4955334;28;20125;-79
2021/07/30 02:01:44;;;;;;;15.48;10.48;;;;;;;;;;4955639;29;20055;-79
2021/07/30 02:04:10;;;;;;;13.20;9.25;;;;;;;;;;4955552;28;20557;-78
2021/07/30 02:06:37;;;;;;;15.63;9.88;;;;;;;;;;4955266;29;20390;-79
2021/07/30 02:09:04;;;;;;;12.95;9.90;;;;;;;;;;4956214;28;20055;-79
2021/07/30 02:11:31;;;;;;;15.55;10.52;;;;;;;;;;4954388;28;20051;-78
2021/07/30 02:14:15;;;;;;;14.13;9.90;;;;;;;;;;4936475;29;20208;-79
2021/07/30 02:16:44;;;;;;;13.77;9.57;;;;;;;;;;4936379;29;20062;-79
2021/07/30 02:19:11;;;;;;;14.13;9.90;;;;;;;;;;4936998;29;20051;-79
2021/07/30 02:21:37;;;;;;;14.85;10.32;;;;;;;;;;4936937;29;20047;-79
2021/07/30 02:24:05;;;;;;;14.32;10.20;;;;;;;;;;4937147;29;20052;-80
2021/07/30 02:26:32;;;;;;;13.40;9.57;;;;;;;;;;4939553;29;20107;-80
2021/07/30 02:28:59;;;;;;;15.05;10.65;;;;;;;;;;4940155;29;20099;-79
2021/07/30 02:31:26;;;;;;;15.85;11.40;;;;;;;;;;4955870;29;20058;-82
2021/07/30 02:33:54;;;;;;;15.57;10.40;;;;;;;;;;4960934;28;20047;-81
2021/07/30 02:36:21;;;;;;;16.00;10.68;;;;;;;;;;4960228;28;20063;-81
2021/07/30 02:38:48;;;;;;;16.67;11.10;;;;;;;;;;4960458;28;20100;-81
2021/07/30 02:41:16;;;;;;;16.63;11.63;;;;;;;;;;4960580;28;20048;-80
2021/07/30 02:43:43;;;;;;;15.50;10.10;;;;;;;;;;4948351;29;20048;-79
2021/07/30 02:46:10;;;;;;;16.42;11.50;;;;;;;;;;4947385;29;20055;-79
2021/07/30 02:48:37;;;;;;;15.70;10.48;;;;;;;;;;4946512;29;20051;-79
2021/07/30 02:51:08;;;;;;;14.70;10.10;;;;;;;;;;4947294;29;20533;-80
2021/07/30 02:53:35;;;;;;;16.02;10.98;;;;;;;;;;4944374;29;20051;-80
2021/07/30 02:56:01;;;;;;;16.92;11.23;;;;;;;;;;4937684;29;20524;-80
2021/07/30 02:58:28;;;;;;;16.90;11.15;;;;;;;;;;4938122;29;20471;-80
2021/07/30 03:00:55;;;;;;;16.58;11.77;;;;;;;;;;4941930;29;20039;-81
2021/07/30 03:03:22;;;;;;;17.05;10.63;;;;;;;;;;4956973;29;20499;-79
2021/07/30 03:05:48;;;;;;;13.73;10.45;;;;;;;;;;4955931;28;20493;-79
2021/07/30 03:08:17;;;;;;;16.35;11.02;;;;;;;;;;4962170;28;20076;-79
2021/07/30 03:10:43;;;;;;;15.98;10.93;;;;;;;;;;4959851;28;20437;-80
2021/07/30 03:13:10;;;;;;;13.93;9.88;;;;;;;;;;4957609;29;20051;-79
2021/07/30 03:15:37;;;;;;;17.08;11.73;;;;;;;;;;4956311;28;20051;-79
2021/07/30 03:18:04;;;;;;;15.38;10.23;;;;;;;;;;4956409;28;20051;-80
2021/07/30 03:20:30;;;;;;;15.48;10.90;;;;;;;;;;4957126;28;20102;-79
2021/07/30 03:22:57;;;;;;;13.23;9.65;;;;;;;;;;4957344;28;20043;-79
2021/07/30 03:25:25;;;;;;;17.52;11.48;;;;;;;;;;4956018;29;20532;-79
2021/07/30 03:27:52;;;;;;;15.43;10.57;;;;;;;;;;4956899;28;20106;-79
2021/07/30 03:30:19;;;;;;;16.05;10.88;;;;;;;;;;4957257;28;20111;-79
2021/07/30 03:32:46;;;;;;;15.90;10.50;;;;;;;;;;4956739;28;20456;-79
2021/07/30 03:35:12;;;;;;;17.70;10.77;;;;;;;;;;4957005;28;20048;-79
2021/07/30 03:37:39;;;;;;;17.63;10.05;;;;;;;;;;4956733;28;20047;-79
2021/07/30 03:40:07;;;;;;;15.10;10.25;;;;;;;;;;4957537;29;20055;-79
2021/07/30 03:42:35;;;;;;;16.40;11.15;;;;;;;;;;4956778;28;20051;-79
2021/07/30 03:45:02;;;;;;;14.95;10.23;;;;;;;;;;4955910;28;20670;-79
2021/07/30 03:47:29;;;;;;;15.88;10.48;;;;;;;;;;4956330;28;20110;-79
2021/07/30 03:49:56;;;;;;;13.70;9.90;;;;;;;;;;4956251;28;20047;-78
2021/07/30 03:52:23;;;;;;;16.15;10.68;;;;;;;;;;4956639;29;20397;-80
2021/07/30 03:54:49;;;;;;;15.30;10.23;;;;;;;;;;4955488;28;20102;-78
2021/07/30 03:57:16;;;;;;;16.02;9.77;;;;;;;;;;4956734;28;20051;-79
2021/07/30 03:59:44;;;;;;;14.75;10.50;;;;;;;;;;4956653;28;20180;-80
2021/07/30 04:02:11;;;;;;;17.00;10.48;;;;;;;;;;4956596;29;20047;-80
2021/07/30 04:04:38;;;;;;;15.98;11.10;;;;;;;;;;4955195;28;20460;-79
2021/07/30 04:07:05;;;;;;;17.80;10.48;;;;;;;;;;4956464;28;20416;-79
2021/07/30 04:09:32;;;;;;;15.45;10.68;;;;;;;;;;4956026;28;20059;-79
2021/07/30 04:11:58;;;;;;;14.45;9.88;;;;;;;;;;4955999;28;20055;-78
2021/07/30 04:14:25;;;;;;;14.73;9.60;;;;;;;;;;4955647;28;20066;-79
2021/07/30 04:16:53;;;;;;;16.38;9.60;;;;;;;;;;4955476;28;20094;-80
2021/07/30 04:19:20;;;;;;;16.10;10.02;;;;;;;;;;4956152;29;20074;-79
2021/07/30 04:21:47;;;;;;;15.38;9.65;;;;;;;;;;4957714;28;20552;-79
2021/07/30 04:24:14;;;;;;;13.60;9.23;;;;;;;;;;4959949;29;20564;-79
2021/07/30 04:26:40;;;;;;;14.82;10.05;;;;;;;;;;4960092;29;20492;-79
2021/07/30 04:29:07;;;;;;;15.85;10.50;;;;;;;;;;4960147;28;20043;-79
2021/07/30 04:31:38;;;;;;;16.55;10.48;;;;;;;;;;4960177;28;20247;-78
2021/07/30 04:34:06;;;;;;;17.88;10.85;;;;;;;;;;4960435;29;20106;-79
2021/07/30 04:36:33;;;;;;;13.48;9.38;;;;;;;;;;4979444;28;20079;-81
2021/07/30 04:39:00;;;;;;;15.70;9.55;;;;;;;;;;4981963;28;20043;-80
2021/07/30 04:41:27;;;;;;;17.50;10.40;;;;;;;;;;4982311;28;20048;-81
2021/07/30 04:43:53;;;;;;;16.40;10.20;;;;;;;;;;4982207;28;20066;-80
2021/07/30 04:46:20;;;;;;;17.38;10.60;;;;;;;;;;4970943;28;20055;-79
2021/07/30 04:48:47;;;;;;;14.18;9.77;;;;;;;;;;4959891;28;20107;-80
2021/07/30 04:51:16;;;;;;;19.17;10.68;;;;;;;;;;4959781;29;20534;-79
2021/07/30 04:53:42;;;;;;;16.17;10.40;;;;;;;;;;4959995;28;20047;-80
2021/07/30 04:56:17;;;;;;;14.85;9.77;;;;;;;;;;4959097;28;20452;-80
2021/07/30 04:58:43;;;;;;;15.50;9.32;;;;;;;;;;4959662;29;20043;-80
2021/07/30 05:01:10;;;;;;;15.32;9.73;;;;;;;;;;4960073;29;20059;-79
2021/07/30 05:03:37;;;;;;;16.95;10.05;;;;;;;;;;4959827;28;20493;-79
2021/07/30 05:06:12;;;;;;;14.30;9.05;;;;;;;;;;4960363;28;20070;-79
2021/07/30 05:08:41;;;;;;;15.45;9.55;;;;;;;;;;4959925;28;20118;-80
2021/07/30 05:11:10;;;;;;;14.90;10.63;;;;;;;;;;4959733;28;20122;-80
2021/07/30 05:13:37;;;;;;;15.00;9.70;;;;;;;;;;4959418;28;20098;-79
2021/07/30 05:16:06;;;;;;;14.95;8.88;;;;;;;;;;4958945;29;20297;-79
2021/07/30 05:18:32;;;;;;;13.80;9.20;;;;;;;;;;4959849;29;20102;-79
2021/07/30 05:20:59;;;;;;;18.35;10.57;;;;;;;;;;4959764;28;20098;-79
2021/07/30 05:23:27;;;;;;;14.82;9.85;;;;;;;;;;4960025;29;20047;-79
2021/07/30 05:25:55;;;;;;;15.18;10.43;;;;;;;;;;4959075;29;20051;-78
2021/07/30 05:28:22;;;;;;;15.48;8.68;;;;;;;;;;4961257;29;20084;-78
2021/07/30 05:30:49;;;;;;;17.83;9.95;;;;;;;;;;4964624;29;20047;-77
2021/07/30 05:33:16;;;;;;;13.35;9.10;;;;;;;;;;4957677;28;20055;-78
2021/07/30 05:35:42;;;;;;;13.00;8.65;;;;;;;;;;4957494;29;20560;-78
2021/07/30 05:38:09;;;;;;;14.50;8.75;;;;;;;;;;4957333;28;20572;-79
2021/07/30 05:40:36;;;;;;;13.18;8.57;;;;;;;;;;4956515;28;20047;-79
2021/07/30 05:43:04;;;;;;;13.05;8.85;;;;;;;;;;4956909;28;20054;-79
2021/07/30 05:45:31;;;;;;;14.00;10.05;;;;;;;;;;4955471;29;20505;-79
2021/07/30 05:47:58;;;;;;;18.67;13.15;;;;;;;;;;4956517;28;20497;-78
2021/07/30 05:50:24;;;;;;;15.10;10.25;;;;;;;;;;4956529;28;20521;-79
2021/07/30 05:52:51;;;;;;;14.98;9.45;;;;;;;;;;4956440;28;20051;-79
2021/07/30 05:55:18;;;;;;;14.18;8.82;;;;;;;;;;4958574;29;20094;-79
2021/07/30 05:57:45;;;;;;;14.60;9.23;;;;;;;;;;4961111;29;20050;-79
2021/07/30 06:00:15;;;;;;;12.88;8.00;;;;;;;;;;4966206;29;20087;-78
2021/07/30 06:02:41;;;;;;;14.85;8.93;;;;;;;;;;4965984;29;20083;-79
2021/07/30 06:05:09;;;;;;;12.48;8.02;;;;;;;;;;4960401;28;20051;-78
2021/07/30 06:07:36;;;;;;;12.63;8.02;;;;;;;;;;4956865;29;20615;-78
2021/07/30 06:10:03;;;;;;;13.23;7.75;;;;;;;;;;4956615;28;20055;-78
2021/07/30 06:12:30;;;;;;;12.40;7.80;;;;;;;;;;4947512;28;20048;-78
2021/07/30 06:14:57;;;;;;;15.38;8.88;;;;;;;;;;4936895;29;20536;-77
2021/07/30 06:17:25;;;;;;;14.68;8.77;;;;;;;;;;4942795;29;20047;-78
2021/07/30 06:19:53;;;;;;;14.60;8.90;;;;;;;;;;4942938;29;20055;-78
2021/07/30 06:22:20;;;;;;;11.35;7.75;;;;;;;;;;4943716;29;20074;-77
2021/07/30 06:24:47;;;;;;;13.77;8.77;;;;;;;;;;4942593;29;20134;-77
2021/07/30 06:27:15;;;;;;;13.82;8.95;;;;;;;;;;4942577;29;20048;-77
2021/07/30 06:29:42;;;;;;;12.95;8.60;;;;;;;;;;4943268;28;20048;-78
2021/07/30 06:32:09;;;;;;;18.58;9.05;;;;;;;;;;4943485;29;20083;-77
2021/07/30 06:34:37;;;;;;;15.70;9.07;;;;;;;;;;4942974;29;20052;-75
2021/07/30 06:37:04;;;;;;;16.65;10.35;;;;;;;;;;4943272;29;20150;-79
2021/07/30 06:39:31;;;;;;;16.10;9.75;;;;;;;;;;4942428;29;20047;-77
2021/07/30 06:41:57;;;;;;;17.20;10.00;;;;;;;;;;4942466;29;20059;-78
2021/07/30 06:44:24;;;;;;;16.83;9.57;;;;;;;;;;4941528;29;20055;-78
2021/07/30 06:46:51;;;;;;;15.10;10.30;;;;;;;;;;4941700;29;20058;-78
2021/07/30 06:49:18;;;;;;;18.45;10.95;;;;;;;;;;4940640;29;20087;-77
2021/07/30 06:51:46;;;;;;;16.27;10.93;;;;;;;;;;4945009;29;20148;-77
2021/07/30 06:54:13;;;;;;;15.88;10.73;;;;;;;;;;4947350;29;20071;-77
2021/07/30 06:56:39;;;;;;;18.50;11.57;;;;;;;;;;4946645;29;20465;-77
2021/07/30 06:59:08;;;;;;;19.48;11.88;;;;;;;;;;4949887;29;20075;-77
2021/07/30 07:01:34;;;;;;;21.52;11.45;;;;;;;;;;4964283;28;20062;-78
2021/07/30 07:04:01;;;;;;;19.10;11.85;;;;;;;;;;4964652;28;20047;-78
2021/07/30 07:06:28;;;;;;;19.58;11.40;;;;;;;;;;4962728;28;20051;-79
2021/07/30 07:08:57;;;;;;;20.50;11.73;;;;;;;;;;4963023;29;20083;-79
2021/07/30 07:11:23;;;;;;;15.68;11.15;;;;;;;;;;4962622;28;20058;-79
2021/07/30 07:13:50;;;;;;;19.58;12.57;;;;;;;;;;4962601;29;20055;-79
2021/07/30 07:16:20;;;;;;;16.35;10.77;;;;;;;;;;4960650;29;20556;-79
2021/07/30 07:18:47;;;;;;;16.52;10.77;;;;;;;;;;4958633;28;20075;-79
2021/07/30 07:21:14;;;;;;;13.02;9.43;;;;;;;;;;4958664;28;20429;-79
2021/07/30 07:23:41;;;;;;;17.42;10.27;;;;;;;;;;4957535;28;20051;-79
2021/07/30 07:26:09;;;;;;;16.98;10.40;;;;;;;;;;4956665;28;20055;-78
2021/07/30 07:28:36;;;;;;;15.20;10.50;;;;;;;;;;4957580;28;20047;-79
2021/07/30 07:31:03;;;;;;;15.50;10.57;;;;;;;;;;4958311;28;20468;-79
2021/07/30 07:33:30;;;;;;;15.95;11.30;;;;;;;;;;4957991;28;20059;-79
2021/07/30 07:35:56;;;;;;;14.82;10.30;;;;;;;;;;4957052;29;20115;-79
2021/07/30 07:38:23;;;;;;;16.17;9.68;;;;;;;;;;4958708;29;20214;-79
2021/07/30 07:40:50;;;;;;;14.70;9.27;;;;;;;;;;4957664;28;20118;-80
2021/07/30 07:43:18;;;;;;;17.35;10.27;;;;;;;;;;4955684;28;20066;-81
2021/07/30 07:45:45;;;;;;;13.57;8.85;;;;;;;;;;4956399;28;20051;-80
2021/07/30 07:48:12;;;;;;;14.40;9.52;;;;;;;;;;4958181;28;20051;-79
2021/07/30 07:50:39;;;;;;;14.00;9.82;;;;;;;;;;4959758;28;20059;-79
2021/07/30 07:53:13;;;;;;;13.05;9.18;;;;;;;;;;4957641;28;20059;-80
2021/07/30 07:55:42;;;;;;;15.95;9.90;;;;;;;;;;4957138;28;20130;-79
2021/07/30 07:58:09;;;;;;;17.55;9.77;;;;;;;;;;4961012;28;20051;-78
2021/07/30 08:00:38;;;;;;;17.85;9.93;;;;;;;;;;4960407;28;20095;-78
2021/07/30 08:03:05;;;;;;;13.48;9.48;;;;;;;;;;4964074;29;20113;-83
2021/07/30 08:05:32;;;;;;;14.93;9.93;;;;;;;;;;4974054;29;20051;-83
2021/07/30 08:07:58;;;;;;;15.70;10.65;;;;;;;;;;4971815;28;20292;-80
2021/07/30 08:10:25;;;;;;;13.65;9.23;;;;;;;;;;4974490;28;20437;-81
2021/07/30 08:12:52;;;;;;;12.27;9.77;;;;;;;;;;4962330;28;20500;-78
2021/07/30 08:15:19;;;;;;;14.93;9.82;;;;;;;;;;4959033;28;20102;-78
2021/07/30 08:17:47;;;;;;;16.48;9.50;;;;;;;;;;4960325;28;20058;-78
2021/07/30 08:20:15;;;;;;;15.60;9.80;;;;;;;;;;4960135;28;20043;-78
2021/07/30 08:22:43;;;;;;;14.55;9.82;;;;;;;;;;4960801;28;20093;-78
2021/07/30 08:25:11;;;;;;;14.18;9.88;;;;;;;;;;4961041;28;20051;-78
2021/07/30 08:27:38;;;;;;;13.90;10.30;;;;;;;;;;4961594;28;20058;-78
2021/07/30 08:30:05;;;;;;;16.17;10.45;;;;;;;;;;4963302;28;20106;-78
2021/07/30 08:32:33;;;;;;;14.80;9.75;;;;;;;;;;4966018;28;20051;-78
2021/07/30 08:35:01;;;;;;;16.00;10.10;;;;;;;;;;4962891;28;20497;-81
2021/07/30 08:37:28;;;;;;;15.38;10.35;;;;;;;;;;4964126;28;20047;-80
2021/07/30 08:39:55;;;;;;;13.63;10.07;;;;;;;;;;4963400;28;20055;-79
2021/07/30 08:42:22;;;;;;;14.05;10.02;;;;;;;;;;4963681;28;20122;-79
2021/07/30 08:44:48;;;;;;;17.08;10.65;;;;;;;;;;4962597;28;20051;-79
2021/07/30 08:47:21;;;;;;;14.90;10.10;;;;;;;;;;4962847;28;20051;-79
2021/07/30 08:49:48;;;;;;;13.90;9.32;;;;;;;;;;4966273;28;20043;-79
2021/07/30 08:52:18;;;;;;;15.00;10.40;;;;;;;;;;4968154;28;20049;-80
2021/07/30 08:54:51;;;;;;;13.60;9.77;;;;;;;;;;4965614;28;20095;-78
2021/07/30 08:57:18;;;;;;;15.43;9.63;;;;;;;;;;4961516;28;20047;-78
2021/07/30 08:59:45;;;;;;;14.63;10.20;;;;;;;;;;4965780;28;20058;-79
2021/07/30 09:02:11;;;;;;;14.27;9.85;;;;;;;;;;4963708;28;20838;-78
2021/07/30 09:04:38;;;;;;;13.88;10.40;;;;;;;;;;4964442;28;20048;-78
2021/07/30 09:07:05;;;;;;;14.77;10.32;;;;;;;;;;4965256;28;20051;-79
2021/07/30 09:09:34;;;;;;;14.05;10.20;;;;;;;;;;4962909;28;20059;-79
2021/07/30 09:12:03;;;;;;;14.30;10.50;;;;;;;;;;4964109;28;20055;-80
2021/07/30 09:14:38;;;;;;;13.77;10.23;;;;;;;;;;4964467;29;20055;-80
2021/07/30 09:17:05;;;;;;;13.13;10.15;;;;;;;;;;4962662;28;20154;-79
2021/07/30 09:19:33;;;;;;;12.57;10.60;;;;;;;;;;4961777;28;20058;-78
2021/07/30 09:22:06;;;;;;;14.82;10.43;;;;;;;;;;4961089;28;20102;-79
2021/07/30 09:24:44;;;;;;;14.90;11.48;;;;;;;;;;4963568;28;20047;-78
2021/07/30 09:27:13;;;;;;;13.35;10.48;;;;;;;;;;4965881;28;20110;-78
2021/07/30 09:29:41;;;;;;;12.77;10.00;;;;;;;;;;4964697;28;20074;-79
2021/07/30 09:32:09;;;;;;;13.70;10.15;;;;;;;;;;4963116;29;20534;-79
2021/07/30 09:34:37;;;;;;;13.07;10.20;;;;;;;;;;4964127;28;20051;-77
2021/07/30 09:37:05;;;;;;;15.70;10.55;;;;;;;;;;4960859;28;20380;-80
2021/07/30 09:39:38;;;;;;;14.68;11.27;;;;;;;;;;4959763;28;20063;-77
2021/07/30 09:42:08;;;;;;;15.40;11.52;;;;;;;;;;4959993;28;20051;-79
2021/07/30 09:44:37;;;;;;;14.02;10.93;;;;;;;;;;4958759;28;20051;-78
2021/07/30 09:47:12;;;;;;;15.63;10.65;;;;;;;;;;4969728;28;20497;-78
2021/07/30 09:49:45;;;;;;;13.25;10.43;;;;;;;;;;4974429;28;20074;-79
2021/07/30 09:52:13;;;;;;;14.10;10.27;;;;;;;;;;4978177;28;20051;-78
2021/07/30 09:54:55;;;;;;;16.98;10.55;;;;;;;;;;4978215;28;20039;-83
2021/07/30 09:57:24;;;;;;;15.00;10.68;;;;;;;;;;4978049;28;20031;-81
2021/07/30 09:59:51;;;;;;;13.55;10.05;;;;;;;;;;4967063;28;20098;-81
2021/07/30 10:02:20;;;;;;;13.18;9.45;;;;;;;;;;4961059;28;20051;-80
2021/07/30 10:04:50;;;;;;;12.68;9.35;;;;;;;;;;4960220;28;20047;-79
2021/07/30 10:07:19;;;;;;;14.82;10.70;;;;;;;;;;4961938;28;20102;-80
2021/07/30 10:09:55;;;;;;;11.75;9.48;;;;;;;;;;4959883;28;20055;-78
2021/07/30 10:12:24;;;;;;;14.88;10.23;;;;;;;;;;4952979;29;20043;-78
2021/07/30 10:14:54;;;;;;;14.38;10.30;;;;;;;;;;4965419;29;20047;-78
2021/07/30 10:17:27;;;;;;;;;;;;;;;;;;4970747;29;20044;-78
2021/07/30 10:19:59;;;;;;;13.98;9.80;;;;;;;;;;4965067;28;19937;-80
2021/07/30 10:22:31;;;;;;;12.23;9.13;;;;;;;;;;4962141;28;20051;-78
2021/07/30 10:24:58;;;;;;;12.90;10.48;;;;;;;;;;4954310;29;20493;-80
2021/07/30 10:27:27;;;;;;;14.15;10.10;;;;;;;;;;4954983;29;20055;-79
2021/07/30 10:30:02;;;;;;;16.65;10.57;;;;;;;;;;4957113;29;20047;-79
2021/07/30 10:32:44;;;;;;;12.35;9.93;;;;;;;;;;4956343;28;20137;-79
2021/07/30 10:35:12;;;;;;;12.98;8.95;;;;;;;;;;4953325;28;20117;-79
2021/07/30 10:37:42;;;;;;;11.55;9.20;;;;;;;;;;4956367;29;20449;-79
2021/07/30 10:40:20;;;;;;;11.57;8.48;;;;;;;;;;4956638;29;20464;-79
2021/07/30 10:43:06;;;;;;;13.60;8.98;;;;;;;;;;4954532;29;20102;-78
2021/07/30 10:45:33;;;;;;;13.23;10.13;;;;;;;;;;4953196;29;20071;-78
2021/07/30 10:48:33;;;;;;;14.90;9.48;;;;;;;;;;4956284;29;20047;-79
2021/07/30 10:51:02;;;;;;;13.55;9.27;;;;;;;;;;4968433;29;20067;-78
2021/07/30 10:53:49;;;;;;;13.55;10.13;;;;;;;;;;4957030;29;20053;-79
2021/07/30 10:56:46;;;;;;;11.98;9.23;;;;;;;;;;4959176;29;20504;-77
2021/07/30 10:59:15;;;;;;;14.43;10.25;;;;;;;;;;4957437;29;20118;-80
2021/07/30 11:01:56;;;;;;;21.77;15.88;;;;;;;;;;4947527;29;20130;-79
2021/07/30 11:04:23;;;;;;;18.17;12.45;;;;;;;;;;4945202;29;20109;-79
2021/07/30 11:06:57;;;;;;;18.38;12.05;;;;;;;;;;4957827;28;20103;-79
2021/07/30 11:09:25;;;;;;;12.00;9.38;;;;;;;;;;4955842;28;20047;-78
2021/07/30 11:11:53;;;;;;;12.98;8.93;;;;;;;;;;4954978;29;20122;-78
2021/07/30 11:14:23;;;;;;;12.02;9.00;;;;;;;;;;4953425;28;20110;-79
2021/07/30 11:16:52;;;;;;;12.70;9.98;;;;;;;;;;4956168;28;20052;-79
2021/07/30 11:19:20;;;;;;;14.75;10.02;;;;;;;;;;4957512;28;20634;-79
2021/07/30 11:21:47;;;;;;;12.88;9.82;;;;;;;;;;4956675;28;20090;-78
2021/07/30 11:24:14;;;;;;;12.52;9.20;;;;;;;;;;4954089;28;20051;-78
2021/07/30 11:26:41;;;;;;;11.30;8.60;;;;;;;;;;4951472;28;20048;-78
2021/07/30 11:29:10;;;;;;;14.60;9.38;;;;;;;;;;4961345;29;20568;-78
2021/07/30 11:31:52;;;;;;;16.08;10.73;;;;;;;;;;4960231;28;20047;-79
2021/07/30 11:34:19;;;;;;;11.75;9.48;;;;;;;;;;4954391;28;20057;-79
2021/07/30 11:36:49;;;;;;;14.15;9.55;;;;;;;;;;4952742;28;20102;-78
2021/07/30 11:39:17;;;;;;;16.95;9.65;;;;;;;;;;4954393;29;20043;-78
2021/07/30 11:41:48;;;;;;;14.57;10.25;;;;;;;;;;4954289;28;20130;-78
2021/07/30 11:44:16;;;;;;;12.25;9.60;;;;;;;;;;4955839;28;20107;-79
2021/07/30 11:46:52;;;;;;;13.25;9.63;;;;;;;;;;4965507;28;20051;-78
2021/07/30 11:49:27;;;;;;;12.20;9.82;;;;;;;;;;4978682;28;20042;-82
2021/07/30 11:51:54;;;;;;;12.93;9.40;;;;;;;;;;4979188;28;20063;-83
2021/07/30 11:54:24;;;;;;;12.82;9.70;;;;;;;;;;4978612;28;20027;-82
2021/07/30 11:56:51;;;;;;;13.20;9.10;;;;;;;;;;4973336;28;20082;-81
2021/07/30 11:59:18;;;;;;;12.05;8.57;;;;;;;;;;4960144;29;20047;-80
2021/07/30 12:02:02;;;;;;;11.40;9.00;;;;;;;;;;4959323;28;20124;-79
2021/07/30 12:04:29;;;;;;;12.82;9.00;;;;;;;;;;4958537;28;20051;-80
2021/07/30 12:06:58;;;;;;;10.00;8.30;;;;;;;;;;4960614;28;20164;-81
2021/07/30 12:09:27;;;;;;;10.40;7.38;;;;;;;;;;4958299;28;20441;-79
2021/07/30 12:11:57;;;;;;;12.25;8.98;;;;;;;;;;4958610;28;20071;-78
2021/07/30 12:14:26;;;;;;;9.65;7.68;;;;;;;;;;4960458;29;20094;-78
2021/07/30 12:16:56;;;;;;;11.23;8.30;;;;;;;;;;4959531;29;20054;-78
2021/07/30 12:19:32;;;;;;;9.93;8.20;;;;;;;;;;4960703;29;20054;-79
2021/07/30 12:22:00;;;;;;;10.52;8.43;;;;;;;;;;4960318;29;20055;-79
2021/07/30 12:24:27;;;;;;;13.45;8.73;;;;;;;;;;4960124;29;20501;-80
2021/07/30 12:26:54;;;;;;;11.95;9.00;;;;;;;;;;4958941;28;20050;-79
2021/07/30 12:29:39;;;;;;;12.18;8.77;;;;;;;;;;4961637;28;20110;-78
2021/07/30 12:32:16;;;;;;;12.45;9.32;;;;;;;;;;4970138;29;20071;-78
2021/07/30 12:34:59;;;;;;;11.65;8.57;;;;;;;;;;4961815;29;20047;-80
2021/07/30 12:37:27;;;;;;;11.95;8.95;;;;;;;;;;4961295;29;20055;-80
2021/07/30 12:39:56;;;;;;;12.60;8.80;;;;;;;;;;4960135;28;20047;-80
2021/07/30 12:42:24;;;;;;;11.15;9.07;;;;;;;;;;4958479;28;20110;-80
2021/07/30 12:45:01;;;;;;;12.05;8.73;;;;;;;;;;4962835;29;20110;-80
2021/07/30 12:47:28;;;;;;;12.02;9.05;;;;;;;;;;4965204;29;20040;-80
2021/07/30 12:49:57;;;;;;;11.27;8.73;;;;;;;;;;4965986;29;20051;-80
2021/07/30 12:52:24;;;;;;;12.68;10.57;;;;;;;;;;4968337;29;20118;-80
2021/07/30 12:54:51;;;;;;;12.73;9.60;;;;;;;;;;4971514;28;20130;-80
2021/07/30 12:57:26;;;;;;;13.30;10.02;;;;;;;;;;4969573;29;20047;-81
2021/07/30 12:59:54;;;;;;;11.55;8.73;;;;;;;;;;4970458;28;20046;-81
2021/07/30 13:02:25;;;;;;;11.65;8.85;;;;;;;;;;4970179;29;20058;-79
2021/07/30 13:04:52;;;;;;;14.40;9.55;;;;;;;;;;4971861;28;20814;-78
2021/07/30 13:07:21;;;;;;;11.48;8.93;;;;;;;;;;4971118;28;20051;-80
2021/07/30 13:09:48;;;;;;;12.68;9.05;;;;;;;;;;4965312;28;20457;-80
2021/07/30 13:12:18;;;;;;;10.20;8.55;;;;;;;;;;4960112;28;20047;-79
2021/07/30 13:14:46;;;;;;;10.25;8.43;;;;;;;;;;4960130;28;20453;-80
2021/07/30 13:17:12;;;;;;;10.68;9.35;;;;;;;;;;4959802;28;20059;-80
2021/07/30 13:19:39;;;;;;;10.98;8.32;;;;;;;;;;4961532;28;20075;-80
2021/07/30 13:22:08;;;;;;;12.02;8.52;;;;;;;;;;4959641;28;20043;-80
2021/07/30 13:24:36;;;;;;;10.70;8.63;;;;;;;;;;4960487;28;20527;-79
2021/07/30 13:27:06;;;;;;;10.38;8.93;;;;;;;;;;4959629;29;20055;-79
2021/07/30 13:29:35;;;;;;;12.45;8.55;;;;;;;;;;4958620;29;20079;-79
2021/07/30 13:32:09;;;;;;;11.87;8.30;;;;;;;;;;4960258;28;20168;-79
2021/07/30 13:34:36;;;;;;;11.07;7.88;;;;;;;;;;4956974;28;20571;-81
2021/07/30 13:37:05;;;;;;;10.02;8.30;;;;;;;;;;4957071;28;20055;-78
2021/07/30 13:39:32;;;;;;;11.15;9.43;;;;;;;;;;4963161;28;20055;-79
2021/07/30 13:42:00;;;;;;;11.90;9.07;;;;;;;;;;4962346;28;20094;-78
2021/07/30 13:44:27;;;;;;;11.15;8.52;;;;;;;;;;4961433;28;20128;-79
2021/07/30 13:46:54;;;;;;;10.20;8.18;;;;;;;;;;4981673;23;20055;-77
2021/07/30 13:49:21;;;;;;;11.63;8.93;;;;;;;;;;4961877;28;20519;-76
2021/07/30 13:51:48;;;;;;;11.25;8.45;;;;;;;;;;4936174;29;20048;-76
2021/07/30 13:54:14;;;;;;;10.70;8.75;;;;;;;;;;4935010;29;20564;-76
2021/07/30 13:56:41;;;;;;;10.00;8.30;;;;;;;;;;4935095;29;20056;-76
2021/07/30 13:59:09;;;;;;;11.63;8.52;;;;;;;;;;4935447;29;20103;-77
2021/07/30 14:01:36;;;;;;;10.88;9.00;;;;;;;;;;4944449;29;20083;-77
2021/07/30 14:04:03;;;;;;;10.93;8.95;;;;;;;;;;4954340;28;20475;-77
2021/07/30 14:06:31;;;;;;;13.60;8.38;;;;;;;;;;4953695;28;20106;-76
2021/07/30 14:08:58;;;;;;;10.77;8.40;;;;;;;;;;4955209;28;20051;-78
2021/07/30 14:11:25;;;;;;;9.88;7.57;;;;;;;;;;4955117;28;20077;-76
2021/07/30 14:13:52;;;;;;;9.65;8.50;;;;;;;;;;4954750;28;20480;-77
2021/07/30 14:16:20;;;;;;;11.95;8.70;;;;;;;;;;4953124;29;20055;-77
2021/07/30 14:18:48;;;;;;;11.63;8.70;;;;;;;;;;4954900;28;20548;-77
2021/07/30 14:21:15;;;;;;;10.50;8.60;;;;;;;;;;4955175;28;20572;-77
2021/07/30 14:23:43;;;;;;;12.75;8.13;;;;;;;;;;4955248;28;20977;-75
2021/07/30 14:26:10;;;;;;;11.57;8.98;;;;;;;;;;4954704;28;20090;-76
2021/07/30 14:28:37;;;;;;;10.98;8.73;;;;;;;;;;4955745;29;20047;-76
2021/07/30 14:31:03;;;;;;;12.85;8.75;;;;;;;;;;4954589;28;20078;-76